sensor_id;sensor_type;location;lat;lon;timestamp;P1;durP1;ratioP1;P2;durP2;ratioP2
25191;SDS011;13143;50.924;5.320;2022-12-20T00:02:03;4.60;;;2.50;;
25191;SDS011;13143;50.924;5.320;2022-12-20T00:04:29;4.07;;;2.00;;
25191;SDS011;13143;50.924;5.320;2022-12-20T00:06:54;3.22;;;1.90;;
25191;SDS011;13143;50.924;5.320;2022-12-20T00:09:20;3.90;;;2.15;;
25191;SDS011;13143;50.924;5.320;2022-12-20T00:11:46;5.22;;;2.33;;
25191;SDS011;13143;50.924;5.320;2022-12-20T00:14:12;7.28;;;2.53;;
25191;SDS011;13143;50.924;5.320;2022-12-20T00:16:37;2.30;;;1.83;;
25191;SDS011;13143;50.924;5.320;2022-12-20T00:19:04;6.57;;;2.22;;
25191;SDS011;13143;50.924;5.320;2022-12-20T00:21:32;6.05;;;2.42;;
25191;SDS011;13143;50.924;5.320;2022-12-20T00:23:59;5.65;;;2.65;;
25191;SDS011;13143;50.924;5.320;2022-12-20T00:26:26;3.33;;;2.00;;
25191;SDS011;13143;50.924;5.320;2022-12-20T00:28:53;3.10;;;2.30;;
25191;SDS011;13143;50.924;5.320;2022-12-20T00:31:20;4.38;;;2.15;;
25191;SDS011;13143;50.924;5.320;2022-12-20T00:33:48;7.03;;;2.40;;
25191;SDS011;13143;50.924;5.320;2022-12-20T00:36:16;7.10;;;2.20;;
25191;SDS011;13143;50.924;5.320;2022-12-20T00:38:48;2.80;;;1.95;;
25191;SDS011;13143;50.924;5.320;2022-12-20T00:41:16;3.35;;;2.00;;
25191;SDS011;13143;50.924;5.320;2022-12-20T00:43:44;3.25;;;2.28;;
25191;SDS011;13143;50.924;5.320;2022-12-20T00:46:11;7.88;;;2.67;;
25191;SDS011;13143;50.924;5.320;2022-12-20T00:48:38;4.55;;;2.20;;
25191;SDS011;13143;50.924;5.320;2022-12-20T00:51:05;4.53;;;1.80;;
25191;SDS011;13143;50.924;5.320;2022-12-20T00:53:39;4.57;;;2.35;;
25191;SDS011;13143;50.924;5.320;2022-12-20T00:56:05;3.47;;;2.05;;
25191;SDS011;13143;50.924;5.320;2022-12-20T00:58:32;6.28;;;2.40;;
25191;SDS011;13143;50.924;5.320;2022-12-20T01:00:59;3.40;;;2.20;;
25191;SDS011;13143;50.924;5.320;2022-12-20T01:03:25;6.65;;;2.50;;
25191;SDS011;13143;50.924;5.320;2022-12-20T01:08:18;4.65;;;2.03;;
25191;SDS011;13143;50.924;5.320;2022-12-20T01:10:45;3.58;;;1.83;;
25191;SDS011;13143;50.924;5.320;2022-12-20T01:13:11;5.97;;;2.20;;
25191;SDS011;13143;50.924;5.320;2022-12-20T01:15:37;4.88;;;2.08;;
25191;SDS011;13143;50.924;5.320;2022-12-20T01:18:03;3.47;;;2.00;;
25191;SDS011;13143;50.924;5.320;2022-12-20T01:20:28;3.03;;;1.95;;
25191;SDS011;13143;50.924;5.320;2022-12-20T01:22:54;4.05;;;2.33;;
25191;SDS011;13143;50.924;5.320;2022-12-20T01:25:20;2.53;;;1.90;;
25191;SDS011;13143;50.924;5.320;2022-12-20T01:27:45;4.50;;;2.60;;
25191;SDS011;13143;50.924;5.320;2022-12-20T01:30:11;5.80;;;2.20;;
25191;SDS011;13143;50.924;5.320;2022-12-20T01:32:37;5.90;;;2.50;;
25191;SDS011;13143;50.924;5.320;2022-12-20T01:35:02;4.18;;;2.10;;
25191;SDS011;13143;50.924;5.320;2022-12-20T01:37:28;5.68;;;2.20;;
25191;SDS011;13143;50.924;5.320;2022-12-20T01:39:55;3.60;;;1.95;;
25191;SDS011;13143;50.924;5.320;2022-12-20T01:42:21;5.82;;;2.33;;
25191;SDS011;13143;50.924;5.320;2022-12-20T01:44:50;4.95;;;2.50;;
25191;SDS011;13143;50.924;5.320;2022-12-20T01:47:19;4.45;;;2.30;;
25191;SDS011;13143;50.924;5.320;2022-12-20T01:49:46;4.35;;;2.60;;
25191;SDS011;13143;50.924;5.320;2022-12-20T01:52:26;3.10;;;2.25;;
25191;SDS011;13143;50.924;5.320;2022-12-20T01:55:17;5.72;;;2.78;;
25191;SDS011;13143;50.924;5.320;2022-12-20T01:57:48;5.68;;;2.53;;
25191;SDS011;13143;50.924;5.320;2022-12-20T02:00:21;4.13;;;2.40;;
25191;SDS011;13143;50.924;5.320;2022-12-20T02:02:48;8.30;;;2.40;;
25191;SDS011;13143;50.924;5.320;2022-12-20T02:05:14;7.22;;;2.50;;
25191;SDS011;13143;50.924;5.320;2022-12-20T02:07:42;4.18;;;2.65;;
25191;SDS011;13143;50.924;5.320;2022-12-20T02:10:12;7.38;;;3.20;;
25191;SDS011;13143;50.924;5.320;2022-12-20T02:12:43;6.22;;;2.50;;
25191;SDS011;13143;50.924;5.320;2022-12-20T02:20:31;4.95;;;2.38;;
25191;SDS011;13143;50.924;5.320;2022-12-20T02:28:41;3.85;;;2.10;;
25191;SDS011;13143;50.924;5.320;2022-12-20T02:31:16;6.72;;;2.38;;
25191;SDS011;13143;50.924;5.320;2022-12-20T02:33:45;4.45;;;2.30;;
25191;SDS011;13143;50.924;5.320;2022-12-20T02:36:16;5.95;;;2.50;;
25191;SDS011;13143;50.924;5.320;2022-12-20T02:38:42;4.72;;;2.58;;
25191;SDS011;13143;50.924;5.320;2022-12-20T02:43:53;3.88;;;2.42;;
25191;SDS011;13143;50.924;5.320;2022-12-20T02:46:49;5.22;;;2.38;;
25191;SDS011;13143;50.924;5.320;2022-12-20T02:49:16;2.40;;;2.10;;
25191;SDS011;13143;50.924;5.320;2022-12-20T02:51:46;7.85;;;2.50;;
25191;SDS011;13143;50.924;5.320;2022-12-20T02:54:14;3.97;;;2.33;;
25191;SDS011;13143;50.924;5.320;2022-12-20T02:56:46;4.35;;;2.30;;
25191;SDS011;13143;50.924;5.320;2022-12-20T03:01:44;5.00;;;2.40;;
25191;SDS011;13143;50.924;5.320;2022-12-20T03:04:12;5.22;;;2.38;;
25191;SDS011;13143;50.924;5.320;2022-12-20T03:06:39;5.20;;;2.53;;
25191;SDS011;13143;50.924;5.320;2022-12-20T03:09:30;3.40;;;2.20;;
25191;SDS011;13143;50.924;5.320;2022-12-20T03:11:59;3.95;;;2.28;;
25191;SDS011;13143;50.924;5.320;2022-12-20T03:14:24;3.67;;;2.00;;
25191;SDS011;13143;50.924;5.320;2022-12-20T03:16:51;4.40;;;2.55;;
25191;SDS011;13143;50.924;5.320;2022-12-20T03:19:16;3.58;;;2.00;;
25191;SDS011;13143;50.924;5.320;2022-12-20T03:21:42;3.88;;;2.15;;
25191;SDS011;13143;50.924;5.320;2022-12-20T03:24:08;3.55;;;2.20;;
25191;SDS011;13143;50.924;5.320;2022-12-20T03:26:35;3.10;;;2.20;;
25191;SDS011;13143;50.924;5.320;2022-12-20T03:29:01;4.88;;;2.20;;
25191;SDS011;13143;50.924;5.320;2022-12-20T03:31:27;5.43;;;2.47;;
25191;SDS011;13143;50.924;5.320;2022-12-20T03:33:53;5.65;;;2.58;;
25191;SDS011;13143;50.924;5.320;2022-12-20T03:36:19;4.85;;;2.20;;
25191;SDS011;13143;50.924;5.320;2022-12-20T03:38:49;5.43;;;2.22;;
25191;SDS011;13143;50.924;5.320;2022-12-20T03:41:15;4.65;;;2.20;;
25191;SDS011;13143;50.924;5.320;2022-12-20T03:43:41;4.03;;;2.08;;
25191;SDS011;13143;50.924;5.320;2022-12-20T03:46:06;4.05;;;2.50;;
25191;SDS011;13143;50.924;5.320;2022-12-20T03:48:32;5.25;;;2.35;;
25191;SDS011;13143;50.924;5.320;2022-12-20T03:50:58;3.72;;;2.10;;
25191;SDS011;13143;50.924;5.320;2022-12-20T03:53:23;5.47;;;2.30;;
25191;SDS011;13143;50.924;5.320;2022-12-20T03:55:49;7.45;;;2.42;;
25191;SDS011;13143;50.924;5.320;2022-12-20T03:58:15;6.45;;;2.30;;
25191;SDS011;13143;50.924;5.320;2022-12-20T04:00:40;7.57;;;2.70;;
25191;SDS011;13143;50.924;5.320;2022-12-20T04:03:06;6.63;;;2.17;;
25191;SDS011;13143;50.924;5.320;2022-12-20T04:05:32;5.18;;;2.30;;
25191;SDS011;13143;50.924;5.320;2022-12-20T04:07:57;7.53;;;2.55;;
25191;SDS011;13143;50.924;5.320;2022-12-20T04:10:23;6.63;;;2.50;;
25191;SDS011;13143;50.924;5.320;2022-12-20T04:12:49;7.82;;;2.63;;
25191;SDS011;13143;50.924;5.320;2022-12-20T04:15:15;8.20;;;2.20;;
25191;SDS011;13143;50.924;5.320;2022-12-20T04:17:41;5.13;;;2.20;;
25191;SDS011;13143;50.924;5.320;2022-12-20T04:20:07;6.97;;;2.47;;
25191;SDS011;13143;50.924;5.320;2022-12-20T04:22:44;5.40;;;2.40;;
25191;SDS011;13143;50.924;5.320;2022-12-20T04:25:10;6.82;;;2.75;;
25191;SDS011;13143;50.924;5.320;2022-12-20T04:27:36;4.72;;;2.20;;
25191;SDS011;13143;50.924;5.320;2022-12-20T04:30:01;5.20;;;2.42;;
25191;SDS011;13143;50.924;5.320;2022-12-20T04:32:27;5.43;;;2.33;;
25191;SDS011;13143;50.924;5.320;2022-12-20T04:34:53;5.20;;;2.67;;
25191;SDS011;13143;50.924;5.320;2022-12-20T04:37:18;8.88;;;2.00;;
25191;SDS011;13143;50.924;5.320;2022-12-20T04:39:44;4.97;;;2.47;;
25191;SDS011;13143;50.924;5.320;2022-12-20T04:42:10;8.77;;;2.53;;
25191;SDS011;13143;50.924;5.320;2022-12-20T04:44:35;4.72;;;2.33;;
25191;SDS011;13143;50.924;5.320;2022-12-20T04:47:01;4.25;;;2.20;;
25191;SDS011;13143;50.924;5.320;2022-12-20T04:49:27;4.55;;;2.25;;
25191;SDS011;13143;50.924;5.320;2022-12-20T04:51:52;8.10;;;2.10;;
25191;SDS011;13143;50.924;5.320;2022-12-20T04:54:18;9.60;;;2.35;;
25191;SDS011;13143;50.924;5.320;2022-12-20T04:56:44;5.82;;;2.22;;
25191;SDS011;13143;50.924;5.320;2022-12-20T04:59:09;6.03;;;2.00;;
25191;SDS011;13143;50.924;5.320;2022-12-20T05:01:36;6.05;;;2.10;;
25191;SDS011;13143;50.924;5.320;2022-12-20T05:04:02;6.80;;;2.30;;
25191;SDS011;13143;50.924;5.320;2022-12-20T05:06:28;9.25;;;2.42;;
25191;SDS011;13143;50.924;5.320;2022-12-20T05:08:53;5.22;;;2.17;;
25191;SDS011;13143;50.924;5.320;2022-12-20T05:11:19;6.85;;;2.33;;
25191;SDS011;13143;50.924;5.320;2022-12-20T05:13:45;7.00;;;2.22;;
25191;SDS011;13143;50.924;5.320;2022-12-20T05:16:10;3.70;;;2.30;;
25191;SDS011;13143;50.924;5.320;2022-12-20T05:18:36;3.53;;;2.05;;
25191;SDS011;13143;50.924;5.320;2022-12-20T05:21:02;5.30;;;2.35;;
25191;SDS011;13143;50.924;5.320;2022-12-20T05:23:47;5.65;;;2.08;;
25191;SDS011;13143;50.924;5.320;2022-12-20T05:26:33;5.07;;;2.05;;
25191;SDS011;13143;50.924;5.320;2022-12-20T05:29:00;4.75;;;2.30;;
25191;SDS011;13143;50.924;5.320;2022-12-20T05:31:26;4.70;;;2.00;;
25191;SDS011;13143;50.924;5.320;2022-12-20T05:33:52;8.13;;;2.30;;
25191;SDS011;13143;50.924;5.320;2022-12-20T05:36:18;8.15;;;2.17;;
25191;SDS011;13143;50.924;5.320;2022-12-20T05:38:44;3.42;;;2.15;;
25191;SDS011;13143;50.924;5.320;2022-12-20T05:41:10;5.03;;;2.15;;
25191;SDS011;13143;50.924;5.320;2022-12-20T05:43:36;4.47;;;2.13;;
25191;SDS011;13143;50.924;5.320;2022-12-20T05:46:01;5.05;;;1.85;;
25191;SDS011;13143;50.924;5.320;2022-12-20T05:48:27;4.82;;;2.00;;
25191;SDS011;13143;50.924;5.320;2022-12-20T05:50:53;3.13;;;2.08;;
25191;SDS011;13143;50.924;5.320;2022-12-20T05:53:18;5.53;;;2.70;;
25191;SDS011;13143;50.924;5.320;2022-12-20T05:55:45;5.95;;;1.95;;
25191;SDS011;13143;50.924;5.320;2022-12-20T05:58:12;4.60;;;1.80;;
25191;SDS011;13143;50.924;5.320;2022-12-20T06:00:39;2.80;;;1.80;;
25191;SDS011;13143;50.924;5.320;2022-12-20T06:03:05;7.70;;;2.40;;
25191;SDS011;13143;50.924;5.320;2022-12-20T06:05:33;5.28;;;2.05;;
25191;SDS011;13143;50.924;5.320;2022-12-20T06:08:03;4.60;;;1.77;;
25191;SDS011;13143;50.924;5.320;2022-12-20T06:10:29;5.93;;;1.95;;
25191;SDS011;13143;50.924;5.320;2022-12-20T06:12:55;3.08;;;1.65;;
25191;SDS011;13143;50.924;5.320;2022-12-20T06:15:21;3.30;;;1.60;;
25191;SDS011;13143;50.924;5.320;2022-12-20T06:17:47;4.93;;;1.80;;
25191;SDS011;13143;50.924;5.320;2022-12-20T06:20:12;4.43;;;1.77;;
25191;SDS011;13143;50.924;5.320;2022-12-20T06:22:38;6.72;;;2.05;;
25191;SDS011;13143;50.924;5.320;2022-12-20T06:25:04;5.35;;;2.03;;
25191;SDS011;13143;50.924;5.320;2022-12-20T06:27:31;6.18;;;1.90;;
25191;SDS011;13143;50.924;5.320;2022-12-20T06:29:57;6.50;;;2.25;;
25191;SDS011;13143;50.924;5.320;2022-12-20T06:32:22;5.53;;;2.25;;
25191;SDS011;13143;50.924;5.320;2022-12-20T06:34:49;6.68;;;1.90;;
25191;SDS011;13143;50.924;5.320;2022-12-20T06:37:15;7.45;;;2.13;;
25191;SDS011;13143;50.924;5.320;2022-12-20T06:39:40;6.30;;;2.05;;
25191;SDS011;13143;50.924;5.320;2022-12-20T06:42:06;4.78;;;1.80;;
25191;SDS011;13143;50.924;5.320;2022-12-20T06:44:31;4.95;;;1.80;;
25191;SDS011;13143;50.924;5.320;2022-12-20T06:46:57;4.43;;;2.17;;
25191;SDS011;13143;50.924;5.320;2022-12-20T06:49:23;4.35;;;1.70;;
25191;SDS011;13143;50.924;5.320;2022-12-20T06:51:48;4.53;;;2.15;;
25191;SDS011;13143;50.924;5.320;2022-12-20T06:54:14;5.97;;;2.13;;
25191;SDS011;13143;50.924;5.320;2022-12-20T06:56:39;4.22;;;1.88;;
25191;SDS011;13143;50.924;5.320;2022-12-20T06:59:05;2.75;;;1.77;;
25191;SDS011;13143;50.924;5.320;2022-12-20T07:01:31;5.22;;;1.60;;
25191;SDS011;13143;50.924;5.320;2022-12-20T07:03:56;3.85;;;1.77;;
25191;SDS011;13143;50.924;5.320;2022-12-20T07:06:22;5.72;;;2.03;;
25191;SDS011;13143;50.924;5.320;2022-12-20T07:08:48;2.95;;;1.80;;
25191;SDS011;13143;50.924;5.320;2022-12-20T07:11:13;4.15;;;1.90;;
25191;SDS011;13143;50.924;5.320;2022-12-20T07:13:39;4.68;;;1.70;;
25191;SDS011;13143;50.924;5.320;2022-12-20T07:16:05;3.80;;;1.67;;
25191;SDS011;13143;50.924;5.320;2022-12-20T07:18:31;9.48;;;2.13;;
25191;SDS011;13143;50.924;5.320;2022-12-20T07:20:59;10.73;;;2.08;;
25191;SDS011;13143;50.924;5.320;2022-12-20T07:23:26;4.95;;;2.05;;
25191;SDS011;13143;50.924;5.320;2022-12-20T07:25:55;2.83;;;1.45;;
25191;SDS011;13143;50.924;5.320;2022-12-20T07:28:22;5.20;;;1.88;;
25191;SDS011;13143;50.924;5.320;2022-12-20T07:30:48;5.18;;;1.90;;
25191;SDS011;13143;50.924;5.320;2022-12-20T07:33:14;5.93;;;1.90;;
25191;SDS011;13143;50.924;5.320;2022-12-20T07:35:40;3.85;;;2.70;;
25191;SDS011;13143;50.924;5.320;2022-12-20T07:38:07;4.47;;;2.47;;
25191;SDS011;13143;50.924;5.320;2022-12-20T07:40:33;3.42;;;1.77;;
25191;SDS011;13143;50.924;5.320;2022-12-20T07:42:58;5.00;;;2.83;;
25191;SDS011;13143;50.924;5.320;2022-12-20T07:45:24;9.30;;;2.85;;
25191;SDS011;13143;50.924;5.320;2022-12-20T07:47:50;9.70;;;1.60;;
25191;SDS011;13143;50.924;5.320;2022-12-20T07:50:15;3.50;;;2.38;;
25191;SDS011;13143;50.924;5.320;2022-12-20T07:52:41;6.30;;;1.77;;
25191;SDS011;13143;50.924;5.320;2022-12-20T07:55:09;3.03;;;1.65;;
25191;SDS011;13143;50.924;5.320;2022-12-20T07:57:39;7.45;;;1.98;;
25191;SDS011;13143;50.924;5.320;2022-12-20T08:00:10;4.65;;;1.60;;
25191;SDS011;13143;50.924;5.320;2022-12-20T08:02:41;5.43;;;2.33;;
25191;SDS011;13143;50.924;5.320;2022-12-20T08:05:11;3.13;;;1.70;;
25191;SDS011;13143;50.924;5.320;2022-12-20T08:07:38;1.98;;;1.27;;
25191;SDS011;13143;50.924;5.320;2022-12-20T08:10:05;7.18;;;2.70;;
25191;SDS011;13143;50.924;5.320;2022-12-20T08:12:33;3.92;;;2.05;;
25191;SDS011;13143;50.924;5.320;2022-12-20T08:14:59;3.38;;;2.28;;
25191;SDS011;13143;50.924;5.320;2022-12-20T08:17:24;5.53;;;2.30;;
25191;SDS011;13143;50.924;5.320;2022-12-20T08:19:50;5.53;;;2.20;;
25191;SDS011;13143;50.924;5.320;2022-12-20T08:22:19;5.45;;;2.22;;
25191;SDS011;13143;50.924;5.320;2022-12-20T08:24:45;3.67;;;2.22;;
25191;SDS011;13143;50.924;5.320;2022-12-20T08:27:10;2.53;;;1.52;;
25191;SDS011;13143;50.924;5.320;2022-12-20T08:29:36;5.28;;;1.98;;
25191;SDS011;13143;50.924;5.320;2022-12-20T08:32:02;5.28;;;2.58;;
25191;SDS011;13143;50.924;5.320;2022-12-20T08:34:27;4.80;;;2.28;;
25191;SDS011;13143;50.924;5.320;2022-12-20T08:36:53;4.93;;;1.90;;
25191;SDS011;13143;50.924;5.320;2022-12-20T08:39:19;6.00;;;1.75;;
25191;SDS011;13143;50.924;5.320;2022-12-20T08:41:45;4.40;;;1.88;;
25191;SDS011;13143;50.924;5.320;2022-12-20T08:44:13;5.22;;;1.70;;
25191;SDS011;13143;50.924;5.320;2022-12-20T08:46:39;6.25;;;2.05;;
25191;SDS011;13143;50.924;5.320;2022-12-20T08:49:04;3.53;;;1.80;;
25191;SDS011;13143;50.924;5.320;2022-12-20T08:51:30;7.47;;;2.10;;
25191;SDS011;13143;50.924;5.320;2022-12-20T08:53:56;4.50;;;1.85;;
25191;SDS011;13143;50.924;5.320;2022-12-20T08:56:22;4.03;;;2.20;;
25191;SDS011;13143;50.924;5.320;2022-12-20T08:58:47;6.45;;;2.17;;
25191;SDS011;13143;50.924;5.320;2022-12-20T09:01:15;3.10;;;1.90;;
25191;SDS011;13143;50.924;5.320;2022-12-20T09:03:42;6.20;;;2.20;;
25191;SDS011;13143;50.924;5.320;2022-12-20T09:06:13;5.22;;;2.42;;
25191;SDS011;13143;50.924;5.320;2022-12-20T09:08:43;3.03;;;2.10;;
25191;SDS011;13143;50.924;5.320;2022-12-20T09:11:13;6.47;;;2.55;;
25191;SDS011;13143;50.924;5.320;2022-12-20T09:13:44;3.97;;;1.98;;
25191;SDS011;13143;50.924;5.320;2022-12-20T09:16:12;5.40;;;2.13;;
25191;SDS011;13143;50.924;5.320;2022-12-20T09:18:39;7.47;;;2.50;;
25191;SDS011;13143;50.924;5.320;2022-12-20T09:21:05;5.47;;;2.17;;
25191;SDS011;13143;50.924;5.320;2022-12-20T09:23:33;4.28;;;1.70;;
25191;SDS011;13143;50.924;5.320;2022-12-20T09:26:03;5.70;;;2.10;;
25191;SDS011;13143;50.924;5.320;2022-12-20T09:28:33;3.60;;;1.80;;
25191;SDS011;13143;50.924;5.320;2022-12-20T09:31:00;8.00;;;1.98;;
25191;SDS011;13143;50.924;5.320;2022-12-20T09:33:29;8.45;;;2.53;;
25191;SDS011;13143;50.924;5.320;2022-12-20T09:35:56;7.88;;;2.17;;
25191;SDS011;13143;50.924;5.320;2022-12-20T09:38:23;4.38;;;2.13;;
25191;SDS011;13143;50.924;5.320;2022-12-20T09:40:50;6.35;;;2.20;;
25191;SDS011;13143;50.924;5.320;2022-12-20T09:43:17;9.27;;;1.92;;
25191;SDS011;13143;50.924;5.320;2022-12-20T09:45:45;3.70;;;1.77;;
25191;SDS011;13143;50.924;5.320;2022-12-20T09:48:16;6.18;;;2.03;;
25191;SDS011;13143;50.924;5.320;2022-12-20T09:50:48;4.53;;;2.03;;
25191;SDS011;13143;50.924;5.320;2022-12-20T09:56:35;5.30;;;1.98;;
25191;SDS011;13143;50.924;5.320;2022-12-20T09:59:07;3.72;;;2.05;;
25191;SDS011;13143;50.924;5.320;2022-12-20T10:01:37;5.07;;;2.47;;
25191;SDS011;13143;50.924;5.320;2022-12-20T10:04:22;5.95;;;1.92;;
25191;SDS011;13143;50.924;5.320;2022-12-20T10:15:37;5.75;;;2.00;;
25191;SDS011;13143;50.924;5.320;2022-12-20T10:18:12;6.35;;;2.45;;
25191;SDS011;13143;50.924;5.320;2022-12-20T10:23:24;8.27;;;2.38;;
25191;SDS011;13143;50.924;5.320;2022-12-20T10:26:13;6.72;;;2.72;;
25191;SDS011;13143;50.924;5.320;2022-12-20T10:28:38;6.05;;;2.15;;
25191;SDS011;13143;50.924;5.320;2022-12-20T10:31:09;3.92;;;2.33;;
25191;SDS011;13143;50.924;5.320;2022-12-20T10:33:37;6.13;;;2.63;;
25191;SDS011;13143;50.924;5.320;2022-12-20T10:36:20;6.60;;;2.53;;
25191;SDS011;13143;50.924;5.320;2022-12-20T10:38:56;8.38;;;2.72;;
25191;SDS011;13143;50.924;5.320;2022-12-20T10:41:27;4.47;;;2.47;;
25191;SDS011;13143;50.924;5.320;2022-12-20T10:44:01;6.35;;;2.80;;
25191;SDS011;13143;50.924;5.320;2022-12-20T10:46:41;8.50;;;2.53;;
25191;SDS011;13143;50.924;5.320;2022-12-20T10:49:23;5.38;;;2.88;;
25191;SDS011;13143;50.924;5.320;2022-12-20T10:52:07;5.55;;;2.25;;
25191;SDS011;13143;50.924;5.320;2022-12-20T10:54:39;4.28;;;1.67;;
25191;SDS011;13143;50.924;5.320;2022-12-20T10:59:50;8.65;;;2.90;;
25191;SDS011;13143;50.924;5.320;2022-12-20T11:02:34;5.20;;;2.30;;
25191;SDS011;13143;50.924;5.320;2022-12-20T11:05:23;6.80;;;3.10;;
25191;SDS011;13143;50.924;5.320;2022-12-20T11:10:22;9.23;;;3.50;;
25191;SDS011;13143;50.924;5.320;2022-12-20T11:12:57;4.97;;;2.33;;
25191;SDS011;13143;50.924;5.320;2022-12-20T11:15:31;8.32;;;2.33;;
25191;SDS011;13143;50.924;5.320;2022-12-20T11:29:40;5.72;;;2.63;;
25191;SDS011;13143;50.924;5.320;2022-12-20T11:32:10;6.72;;;2.33;;
25191;SDS011;13143;50.924;5.320;2022-12-20T11:40:33;6.10;;;2.60;;
25191;SDS011;13143;50.924;5.320;2022-12-20T11:43:30;5.72;;;2.30;;
25191;SDS011;13143;50.924;5.320;2022-12-20T11:51:45;8.20;;;3.72;;
25191;SDS011;13143;50.924;5.320;2022-12-20T11:54:20;6.10;;;2.45;;
25191;SDS011;13143;50.924;5.320;2022-12-20T11:56:53;11.18;;;2.92;;
25191;SDS011;13143;50.924;5.320;2022-12-20T12:02:33;8.82;;;3.58;;
25191;SDS011;13143;50.924;5.320;2022-12-20T12:05:14;7.63;;;2.90;;
25191;SDS011;13143;50.924;5.320;2022-12-20T12:07:49;4.53;;;2.50;;
25191;SDS011;13143;50.924;5.320;2022-12-20T12:10:30;10.70;;;2.90;;
25191;SDS011;13143;50.924;5.320;2022-12-20T12:13:10;7.10;;;2.88;;
25191;SDS011;13143;50.924;5.320;2022-12-20T12:18:28;9.75;;;2.95;;
25191;SDS011;13143;50.924;5.320;2022-12-20T12:20:58;12.40;;;3.58;;
25191;SDS011;13143;50.924;5.320;2022-12-20T12:26:21;13.10;;;3.25;;
25191;SDS011;13143;50.924;5.320;2022-12-20T12:28:54;6.40;;;3.08;;
25191;SDS011;13143;50.924;5.320;2022-12-20T12:31:24;9.70;;;2.97;;
25191;SDS011;13143;50.924;5.320;2022-12-20T12:34:00;7.75;;;3.40;;
25191;SDS011;13143;50.924;5.320;2022-12-20T12:39:24;10.50;;;3.22;;
25191;SDS011;13143;50.924;5.320;2022-12-20T12:44:52;7.55;;;3.45;;
25191;SDS011;13143;50.924;5.320;2022-12-20T12:47:36;7.25;;;3.20;;
25191;SDS011;13143;50.924;5.320;2022-12-20T12:53:35;9.98;;;4.00;;
25191;SDS011;13143;50.924;5.320;2022-12-20T12:55:53;6.97;;;3.13;;
25191;SDS011;13143;50.924;5.320;2022-12-20T13:11:29;13.77;;;3.25;;
25191;SDS011;13143;50.924;5.320;2022-12-20T13:16:45;8.13;;;2.90;;
25191;SDS011;13143;50.924;5.320;2022-12-20T13:19:18;10.88;;;3.13;;
25191;SDS011;13143;50.924;5.320;2022-12-20T13:40:18;11.93;;;3.13;;
25191;SDS011;13143;50.924;5.320;2022-12-20T13:45:52;9.98;;;2.90;;
25191;SDS011;13143;50.924;5.320;2022-12-20T13:48:38;9.57;;;3.03;;
25191;SDS011;13143;50.924;5.320;2022-12-20T13:51:21;9.88;;;3.63;;
25191;SDS011;13143;50.924;5.320;2022-12-20T13:53:53;8.55;;;3.40;;
25191;SDS011;13143;50.924;5.320;2022-12-20T13:56:41;8.18;;;3.13;;
25191;SDS011;13143;50.924;5.320;2022-12-20T13:59:24;8.77;;;2.88;;
25191;SDS011;13143;50.924;5.320;2022-12-20T14:01:52;9.35;;;3.58;;
25191;SDS011;13143;50.924;5.320;2022-12-20T14:04:21;6.35;;;3.35;;
25191;SDS011;13143;50.924;5.320;2022-12-20T14:06:54;11.88;;;3.25;;
25191;SDS011;13143;50.924;5.320;2022-12-20T14:09:31;12.93;;;3.50;;
25191;SDS011;13143;50.924;5.320;2022-12-20T14:12:06;9.48;;;3.50;;
25191;SDS011;13143;50.924;5.320;2022-12-20T14:14:42;9.48;;;3.00;;
25191;SDS011;13143;50.924;5.320;2022-12-20T14:17:22;8.52;;;3.40;;
25191;SDS011;13143;50.924;5.320;2022-12-20T14:25:25;10.35;;;3.17;;
25191;SDS011;13143;50.924;5.320;2022-12-20T14:27:58;7.07;;;3.05;;
25191;SDS011;13143;50.924;5.320;2022-12-20T14:30:28;5.57;;;3.20;;
25191;SDS011;13143;50.924;5.320;2022-12-20T14:32:56;7.82;;;2.70;;
25191;SDS011;13143;50.924;5.320;2022-12-20T14:35:22;9.60;;;2.60;;
25191;SDS011;13143;50.924;5.320;2022-12-20T14:37:58;6.90;;;2.72;;
25191;SDS011;13143;50.924;5.320;2022-12-20T14:40:28;11.35;;;3.00;;
25191;SDS011;13143;50.924;5.320;2022-12-20T14:42:54;11.13;;;3.13;;
25191;SDS011;13143;50.924;5.320;2022-12-20T14:45:25;10.55;;;4.03;;
25191;SDS011;13143;50.924;5.320;2022-12-20T14:50:33;7.30;;;2.70;;
25191;SDS011;13143;50.924;5.320;2022-12-20T14:53:01;10.77;;;3.70;;
25191;SDS011;13143;50.924;5.320;2022-12-20T14:55:32;6.95;;;2.95;;
25191;SDS011;13143;50.924;5.320;2022-12-20T14:58:00;8.20;;;3.05;;
25191;SDS011;13143;50.924;5.320;2022-12-20T15:00:30;12.65;;;3.22;;
25191;SDS011;13143;50.924;5.320;2022-12-20T15:03:15;8.82;;;2.72;;
25191;SDS011;13143;50.924;5.320;2022-12-20T15:05:44;10.65;;;3.25;;
25191;SDS011;13143;50.924;5.320;2022-12-20T15:13:21;7.45;;;3.20;;
25191;SDS011;13143;50.924;5.320;2022-12-20T15:15:49;10.65;;;3.35;;
25191;SDS011;13143;50.924;5.320;2022-12-20T15:18:16;11.13;;;3.00;;
25191;SDS011;13143;50.924;5.320;2022-12-20T15:20:43;9.27;;;2.75;;
25191;SDS011;13143;50.924;5.320;2022-12-20T15:23:13;10.60;;;3.50;;
25191;SDS011;13143;50.924;5.320;2022-12-20T15:25:40;12.80;;;4.03;;
25191;SDS011;13143;50.924;5.320;2022-12-20T15:28:11;13.93;;;3.90;;
25191;SDS011;13143;50.924;5.320;2022-12-20T15:30:38;12.38;;;4.97;;
25191;SDS011;13143;50.924;5.320;2022-12-20T15:33:03;12.00;;;2.95;;
25191;SDS011;13143;50.924;5.320;2022-12-20T15:35:29;10.80;;;3.75;;
25191;SDS011;13143;50.924;5.320;2022-12-20T15:37:55;10.40;;;3.30;;
25191;SDS011;13143;50.924;5.320;2022-12-20T15:40:20;12.18;;;4.55;;
25191;SDS011;13143;50.924;5.320;2022-12-20T15:42:47;9.95;;;4.25;;
25191;SDS011;13143;50.924;5.320;2022-12-20T15:45:13;12.43;;;3.72;;
25191;SDS011;13143;50.924;5.320;2022-12-20T15:47:39;7.53;;;3.53;;
25191;SDS011;13143;50.924;5.320;2022-12-20T15:50:05;9.70;;;3.42;;
25191;SDS011;13143;50.924;5.320;2022-12-20T15:52:31;9.48;;;4.03;;
25191;SDS011;13143;50.924;5.320;2022-12-20T15:54:57;9.32;;;4.85;;
25191;SDS011;13143;50.924;5.320;2022-12-20T15:57:23;8.32;;;3.58;;
25191;SDS011;13143;50.924;5.320;2022-12-20T15:59:48;9.85;;;3.20;;
25191;SDS011;13143;50.924;5.320;2022-12-20T16:02:20;8.73;;;3.80;;
25191;SDS011;13143;50.924;5.320;2022-12-20T16:04:47;8.85;;;3.20;;
25191;SDS011;13143;50.924;5.320;2022-12-20T16:07:14;10.88;;;3.45;;
25191;SDS011;13143;50.924;5.320;2022-12-20T16:09:40;8.93;;;3.47;;
25191;SDS011;13143;50.924;5.320;2022-12-20T16:12:17;10.70;;;4.13;;
25191;SDS011;13143;50.924;5.320;2022-12-20T16:14:46;11.88;;;3.33;;
25191;SDS011;13143;50.924;5.320;2022-12-20T16:17:12;10.25;;;3.80;;
25191;SDS011;13143;50.924;5.320;2022-12-20T16:19:39;5.40;;;3.00;;
25191;SDS011;13143;50.924;5.320;2022-12-20T16:22:05;8.05;;;3.80;;
25191;SDS011;13143;50.924;5.320;2022-12-20T16:24:38;8.70;;;3.70;;
25191;SDS011;13143;50.924;5.320;2022-12-20T16:27:03;12.20;;;5.00;;
25191;SDS011;13143;50.924;5.320;2022-12-20T16:29:29;10.65;;;4.00;;
25191;SDS011;13143;50.924;5.320;2022-12-20T16:31:55;9.50;;;3.92;;
25191;SDS011;13143;50.924;5.320;2022-12-20T16:34:23;8.88;;;4.00;;
25191;SDS011;13143;50.924;5.320;2022-12-20T16:36:49;8.23;;;4.20;;
25191;SDS011;13143;50.924;5.320;2022-12-20T16:39:15;9.90;;;4.05;;
25191;SDS011;13143;50.924;5.320;2022-12-20T16:41:41;7.97;;;3.72;;
25191;SDS011;13143;50.924;5.320;2022-12-20T16:44:12;11.00;;;4.15;;
25191;SDS011;13143;50.924;5.320;2022-12-20T16:46:39;12.55;;;4.30;;
25191;SDS011;13143;50.924;5.320;2022-12-20T16:49:07;10.82;;;4.47;;
25191;SDS011;13143;50.924;5.320;2022-12-20T16:51:44;14.35;;;5.05;;
25191;SDS011;13143;50.924;5.320;2022-12-20T16:54:15;11.25;;;4.68;;
25191;SDS011;13143;50.924;5.320;2022-12-20T16:56:43;9.43;;;4.32;;
25191;SDS011;13143;50.924;5.320;2022-12-20T16:59:11;11.95;;;4.50;;
25191;SDS011;13143;50.924;5.320;2022-12-20T17:01:37;10.30;;;4.82;;
25191;SDS011;13143;50.924;5.320;2022-12-20T17:04:08;12.88;;;4.47;;
25191;SDS011;13143;50.924;5.320;2022-12-20T17:09:06;12.80;;;4.70;;